Acton, Texas
Current Conditions -  °F | °C
As of 2:15 PM on Sunday 25 Jan 2015 (Local Time) from KGDJ Reporting Station
Clear Clear  
Wind Chill: 66°   Ceiling: Unl
Heat Index: 66°   Visibility: 10mi
Dew Point: 24°   Wind: 22mph
Humidity: 21%   Direction: 310°NW
Pressure: 30.09"   Gusts: 32mph
Location:  32.4693°N, 97.7085°W
Report Text: KGDJ 252015Z AUTO 31019G28KT 10SM CLR 19/M04 A3009 RMK AO2 T01871042
Loading
Personal Weather Stations






























Interactive Weather Map New forecast layout! Learn more

10-Day Weather Forecast

Advertisements
Track Severe Weather on mobile